Byers, Colorado
Current Conditions -  °F | °C
As of 9:50 AM on Friday 19 Dec 2014 (Local Time) from KFTG Reporting Station
Few Clouds Few Clouds  
Wind Chill: 32°   Ceiling: Unl
Heat Index: 37°   Visibility: 30mi
Dew Point: 30°   Wind: 7mph
Humidity: 75%   Direction: 240°WSW
Pressure: 30.11"   Gusts: NA
Location:  39.71°N, 104.23°W
Report Text: KFTG 191650Z 24006KT 30SM FEW100 03/M01 A3011
Loading
Personal Weather Stations






























Interactive Weather Map New forecast layout! Learn more

10-Day Weather Forecast

Advertisements
Track Severe Weather on mobile